Time;durP1;ratioP1;P1;durP2;ratioP2;P2;SDS_P1;SDS_P2;PMS_P1;PMS_P2;Temp;Humidity;BMP_temperature;BMP_pressure;BME280_temperature;BME280_humidity;BME280_pressure;Samples;Min_cycle;Max_cycle;Signal;HPM_P1;HPM_P2
2021/01/25 00:01:10;;;;;;;15.52;8.27;;;19.20;46.10;;;;;;5013433;28;20103;-40
2021/01/25 00:03:39;;;;;;;15.07;8.05;;;19.20;46.00;;;;;;5008312;28;20045;-39
2021/01/25 00:06:05;;;;;;;15.13;7.95;;;19.20;46.10;;;;;;5010347;28;20100;-39
2021/01/25 00:08:32;;;;;;;20.33;8.93;;;19.20;46.00;;;;;;5010589;28;20453;-41
2021/01/25 00:10:59;;;;;;;18.92;8.65;;;19.20;46.10;;;;;;5010446;28;20414;-40
2021/01/25 00:13:25;;;;;;;16.70;8.77;;;19.20;46.10;;;;;;5010320;28;20399;-39
2021/01/25 00:15:52;;;;;;;17.45;9.05;;;19.20;46.00;;;;;;5008638;28;20046;-39
2021/01/25 00:18:19;;;;;;;15.50;8.57;;;19.20;46.10;;;;;;5008769;28;20061;-39
2021/01/25 00:20:46;;;;;;;16.55;8.68;;;19.20;46.10;;;;;;5010154;28;20038;-40
2021/01/25 00:23:12;;;;;;;16.17;8.05;;;19.20;46.10;;;;;;4993092;28;20050;-40
2021/01/25 00:25:39;;;;;;;15.70;8.20;;;19.20;46.10;;;;;;5011544;28;20050;-40
2021/01/25 00:28:06;;;;;;;14.57;8.00;;;19.20;46.00;;;;;;5011536;28;20128;-39
2021/01/25 00:30:32;;;;;;;17.30;8.63;;;19.20;46.10;;;;;;5025373;28;20401;-39
2021/01/25 00:32:59;;;;;;;17.45;8.43;;;19.20;46.10;;;;;;5011203;28;20046;-40
2021/01/25 00:35:26;;;;;;;16.48;8.43;;;19.20;46.10;;;;;;5011485;28;20050;-42
2021/01/25 00:37:53;;;;;;;14.85;7.80;;;19.20;46.10;;;;;;5009047;28;20038;-39
2021/01/25 00:40:19;;;;;;;15.18;7.95;;;19.20;46.10;;;;;;5010828;28;20136;-39
2021/01/25 00:42:46;;;;;;;16.10;8.45;;;19.20;46.10;;;;;;5010603;28;20116;-41
2021/01/25 00:45:13;;;;;;;16.58;8.27;;;19.20;46.00;;;;;;5012675;28;20042;-40
2021/01/25 00:47:40;;;;;;;15.55;7.63;;;19.20;46.10;;;;;;5012870;28;20478;-42
2021/01/25 00:50:07;;;;;;;16.23;8.13;;;19.20;46.00;;;;;;5015145;28;20050;-40
2021/01/25 00:52:34;;;;;;;15.55;7.70;;;19.20;46.00;;;;;;5015175;28;20126;-39
2021/01/25 00:55:01;;;;;;;15.18;7.68;;;19.20;46.00;;;;;;5014009;28;20064;-40
2021/01/25 00:57:28;;;;;;;16.23;8.35;;;19.10;45.90;;;;;;5013985;28;20537;-39
2021/01/25 00:59:54;;;;;;;15.20;7.80;;;19.20;46.00;;;;;;5013356;28;20050;-39
2021/01/25 01:02:21;;;;;;;15.70;8.10;;;19.10;46.00;;;;;;5014133;28;20058;-39
2021/01/25 01:04:48;;;;;;;14.65;8.05;;;19.10;45.90;;;;;;5012025;28;20049;-41
2021/01/25 01:07:14;;;;;;;16.73;7.68;;;19.20;46.00;;;;;;5013469;28;20549;-40
2021/01/25 01:09:41;;;;;;;15.50;8.13;;;19.10;46.00;;;;;;5013193;28;20076;-39
2021/01/25 01:12:08;;;;;;;15.57;7.90;;;19.10;46.00;;;;;;5013387;28;20078;-39
2021/01/25 01:14:34;;;;;;;16.60;8.50;;;19.10;46.00;;;;;;5013501;28;20514;-41
2021/01/25 01:17:01;;;;;;;14.73;7.55;;;19.10;46.00;;;;;;5029094;28;20465;-39
2021/01/25 01:19:28;;;;;;;15.98;8.27;;;19.10;46.00;;;;;;5013763;28;20093;-42
2021/01/25 01:21:55;;;;;;;14.75;7.18;;;19.10;46.00;;;;;;5013413;28;20413;-39
2021/01/25 01:24:22;;;;;;;15.07;7.32;;;19.10;45.90;;;;;;5011827;28;20100;-41
2021/01/25 01:26:48;;;;;;;15.15;8.27;;;19.10;46.00;;;;;;5013919;28;20050;-39
2021/01/25 01:29:15;;;;;;;15.95;7.97;;;19.10;46.00;;;;;;5013309;28;20461;-39
2021/01/25 01:31:42;;;;;;;15.00;7.75;;;19.10;45.90;;;;;;5027689;28;20050;-40
2021/01/25 01:34:09;;;;;;;16.05;8.00;;;19.10;46.00;;;;;;5013100;28;20124;-39
2021/01/25 01:36:35;;;;;;;15.95;7.93;;;19.10;46.00;;;;;;5027118;28;20058;-39
2021/01/25 01:39:03;;;;;;;17.27;8.82;;;19.10;45.90;;;;;;5010612;28;20077;-41
2021/01/25 01:41:39;;;;;;;18.42;8.63;;;19.10;45.90;;;;;;5013704;28;20096;-40
2021/01/25 01:44:12;;;;;;;16.88;7.90;;;19.10;46.00;;;;;;5012155;28;20053;-39
2021/01/25 01:46:42;;;;;;;14.75;7.25;;;19.10;45.90;;;;;;5012773;28;20456;-40
2021/01/25 01:49:13;;;;;;;13.88;7.28;;;19.10;46.00;;;;;;5012849;28;20054;-40
2021/01/25 01:51:40;;;;;;;15.77;8.13;;;19.10;45.90;;;;;;5012256;28;20049;-39
2021/01/25 01:54:07;;;;;;;15.02;7.68;;;19.10;45.90;;;;;;5012553;28;20050;-40
2021/01/25 01:56:36;;;;;;;14.45;7.10;;;19.10;45.90;;;;;;5012540;28;20068;-41
2021/01/25 01:59:03;;;;;;;16.08;7.15;;;19.10;45.90;;;;;;5012542;28;20381;-39
2021/01/25 02:01:30;;;;;;;15.85;7.57;;;19.10;46.00;;;;;;5016121;28;20045;-39
2021/01/25 02:03:58;;;;;;;14.45;7.38;;;19.10;46.00;;;;;;5019288;28;20057;-39
2021/01/25 02:06:29;;;;;;;13.18;7.22;;;19.10;45.90;;;;;;5010938;28;20054;-39
2021/01/25 02:09:01;;;;;;;15.30;7.35;;;19.10;45.90;;;;;;5012506;28;20405;-39
2021/01/25 02:11:29;;;;;;;14.13;7.13;;;19.10;45.90;;;;;;5012794;28;20081;-39
2021/01/25 02:13:57;;;;;;;15.73;7.63;;;19.10;45.90;;;;;;4995471;28;23270;-40
2021/01/25 02:16:40;;;;;;;13.10;7.07;;;19.10;45.90;;;;;;4995465;28;20057;-39
2021/01/25 02:19:14;;;;;;;15.18;7.40;;;19.10;46.00;;;;;;5013891;28;20046;-41
2021/01/25 02:21:55;;;;;;;15.02;7.20;;;19.10;45.90;;;;;;5014097;28;20046;-39
2021/01/25 02:24:31;;;;;;;15.20;7.43;;;19.10;46.00;;;;;;5013473;28;20046;-40
2021/01/25 02:27:33;;;;;;;16.95;8.35;;;19.10;46.00;;;;;;5012218;28;20108;-39
2021/01/25 02:30:01;;;;;;;14.77;7.22;;;19.10;45.90;;;;;;5010958;28;20081;-39
2021/01/25 02:32:31;;;;;;;13.25;7.30;;;19.10;46.00;;;;;;5013307;28;20421;-41
2021/01/25 02:35:02;;;;;;;15.13;7.22;;;19.10;46.00;;;;;;5013201;28;20058;-41
2021/01/25 02:37:29;;;;;;;13.35;7.03;;;19.10;45.90;;;;;;5010849;28;20053;-42
2021/01/25 02:39:58;;;;;;;12.80;6.65;;;19.10;45.90;;;;;;5011601;28;20073;-42
2021/01/25 02:42:26;;;;;;;13.98;6.97;;;19.10;46.00;;;;;;5012825;28;20074;-42
2021/01/25 02:44:54;;;;;;;14.52;7.20;;;19.10;46.00;;;;;;5011360;28;20056;-40
2021/01/25 02:47:22;;;;;;;11.30;6.60;;;19.10;46.00;;;;;;5011395;28;20046;-40
2021/01/25 02:49:49;;;;;;;14.07;7.60;;;19.10;46.00;;;;;;5010446;28;20058;-39
2021/01/25 02:52:16;;;;;;;12.18;6.90;;;19.10;45.90;;;;;;5011870;28;20096;-40
2021/01/25 02:54:44;;;;;;;12.35;7.22;;;19.10;45.90;;;;;;5026672;28;20049;-39
2021/01/25 02:57:16;;;;;;;13.00;7.13;;;19.10;46.00;;;;;;5010550;28;20046;-42
2021/01/25 02:59:43;;;;;;;14.70;7.45;;;19.00;45.90;;;;;;5012561;28;20107;-40
2021/01/25 03:02:11;;;;;;;13.73;7.35;;;19.00;45.90;;;;;;5022888;28;20378;-39
2021/01/25 03:04:39;;;;;;;13.40;7.00;;;19.10;45.90;;;;;;5009254;28;20046;-39
2021/01/25 03:07:06;;;;;;;13.13;7.05;;;19.00;45.90;;;;;;5009906;28;20046;-41
2021/01/25 03:09:33;;;;;;;15.90;8.13;;;19.00;45.90;;;;;;5011209;28;20108;-39
2021/01/25 03:12:04;;;;;;;12.60;6.78;;;19.00;45.90;;;;;;5011339;28;20049;-40
2021/01/25 03:14:31;;;;;;;11.88;6.45;;;19.00;45.90;;;;;;5011182;28;20124;-39
2021/01/25 03:16:59;;;;;;;13.13;6.65;;;19.00;45.90;;;;;;5009836;28;20470;-41
2021/01/25 03:19:26;;;;;;;11.20;6.45;;;19.00;45.90;;;;;;5011012;28;20159;-41
2021/01/25 03:21:54;;;;;;;12.18;6.60;;;19.00;45.90;;;;;;5009560;28;20172;-39
2021/01/25 03:24:21;;;;;;;14.48;7.57;;;19.00;45.90;;;;;;5011270;28;20038;-41
2021/01/25 03:26:48;;;;;;;14.45;7.38;;;19.00;45.90;;;;;;5009927;28;20065;-40
2021/01/25 03:29:15;;;;;;;14.52;7.28;;;19.00;45.90;;;;;;5011755;28;20100;-40
2021/01/25 03:31:41;;;;;;;14.95;7.78;;;19.00;45.90;;;;;;5010913;28;20108;-40
2021/01/25 03:34:08;;;;;;;14.55;7.30;;;19.00;45.90;;;;;;5010584;28;20498;-39
2021/01/25 03:36:36;;;;;;;12.98;7.30;;;19.00;45.80;;;;;;5011954;28;20053;-39
2021/01/25 03:39:05;;;;;;;11.00;6.15;;;19.00;45.80;;;;;;5011622;28;20145;-40
2021/01/25 03:41:31;;;;;;;12.55;6.97;;;19.00;45.80;;;;;;5011971;28;20053;-39
2021/01/25 03:43:58;;;;;;;12.93;6.30;;;19.00;45.80;;;;;;5008817;28;20049;-40
2021/01/25 03:46:26;;;;;;;13.73;7.00;;;19.00;45.80;;;;;;5011602;28;20096;-39
2021/01/25 03:48:52;;;;;;;12.95;6.95;;;19.00;45.80;;;;;;5010430;28;20113;-40
2021/01/25 03:51:20;;;;;;;11.65;6.18;;;19.00;45.80;;;;;;5010500;28;20046;-39
2021/01/25 03:53:49;;;;;;;13.52;6.60;;;19.00;45.90;;;;;;5010946;28;20053;-39
2021/01/25 03:56:16;;;;;;;11.32;6.10;;;19.00;45.80;;;;;;5011517;28;20073;-39
2021/01/25 03:58:43;;;;;;;11.35;5.82;;;19.00;45.80;;;;;;5010699;28;20080;-40
2021/01/25 04:01:10;;;;;;;11.30;6.20;;;19.00;45.80;;;;;;5011269;28;20046;-40
2021/01/25 04:03:37;;;;;;;11.40;6.22;;;19.00;45.80;;;;;;5012682;28;20045;-40
2021/01/25 04:06:04;;;;;;;13.70;6.85;;;19.00;46.40;;;;;;5010368;28;20057;-39
2021/01/25 04:08:30;;;;;;;14.45;6.68;;;19.00;45.80;;;;;;5011493;28;20145;-40
2021/01/25 04:10:57;;;;;;;11.98;6.30;;;19.00;45.80;;;;;;5009077;28;20068;-40
2021/01/25 04:13:24;;;;;;;11.60;6.53;;;19.00;45.80;;;;;;5009301;28;20100;-40
2021/01/25 04:15:50;;;;;;;12.30;6.75;;;19.00;45.80;;;;;;5009915;28;20108;-39
2021/01/25 04:18:17;;;;;;;11.88;6.70;;;19.00;45.80;;;;;;5009087;28;20054;-39
2021/01/25 04:20:44;;;;;;;11.13;6.40;;;19.00;45.80;;;;;;5010487;28;20108;-39
2021/01/25 04:23:10;;;;;;;11.45;6.32;;;19.00;45.80;;;;;;5011791;28;20057;-39
2021/01/25 04:25:37;;;;;;;10.70;5.78;;;19.00;45.80;;;;;;5008872;28;20054;-39
2021/01/25 04:28:04;;;;;;;11.23;6.10;;;19.00;45.80;;;;;;5009088;28;20058;-40
2021/01/25 04:30:30;;;;;;;10.70;6.22;;;19.00;45.80;;;;;;5009913;28;20057;-39
2021/01/25 04:32:57;;;;;;;11.63;6.22;;;19.00;45.80;;;;;;5010296;28;20049;-39
2021/01/25 04:35:24;;;;;;;13.10;6.72;;;19.00;45.80;;;;;;5009040;28;20453;-39
2021/01/25 04:37:51;;;;;;;12.32;6.68;;;19.00;45.80;;;;;;5010037;28;20135;-40
2021/01/25 04:40:17;;;;;;;10.93;6.18;;;19.00;45.80;;;;;;5008371;28;20516;-39
2021/01/25 04:42:45;;;;;;;10.98;6.00;;;19.00;45.80;;;;;;5009827;28;20149;-39
2021/01/25 04:45:13;;;;;;;11.75;6.22;;;19.00;45.80;;;;;;5008733;28;20121;-39
2021/01/25 04:47:46;;;;;;;13.15;6.82;;;19.00;45.80;;;;;;5011409;28;20053;-39
2021/01/25 04:50:16;;;;;;;;;;;18.90;46.30;;;;;;5011981;28;20480;-39
2021/01/25 04:52:45;;;;;;;11.10;5.75;;;19.00;45.70;;;;;;5009871;28;20254;-40
2021/01/25 04:55:12;;;;;;;11.45;6.65;;;18.90;45.70;;;;;;5010071;28;20468;-39
2021/01/25 04:57:41;;;;;;;12.27;6.22;;;18.90;45.70;;;;;;5007698;28;20054;-39
2021/01/25 05:00:08;;;;;;;10.82;6.28;;;18.90;45.70;;;;;;5009831;28;20056;-39
2021/01/25 05:02:37;;;;;;;11.70;6.18;;;18.90;45.70;;;;;;5010803;28;20041;-39
2021/01/25 05:05:05;;;;;;;10.35;5.70;;;18.90;45.70;;;;;;5008382;28;20046;-39
2021/01/25 05:07:33;;;;;;;13.07;6.22;;;18.90;45.70;;;;;;5009993;28;20180;-39
2021/01/25 05:10:00;;;;;;;11.15;6.18;;;18.90;45.70;;;;;;5009729;28;20049;-39
2021/01/25 05:12:48;;;;;;;10.35;5.45;;;18.90;45.70;;;;;;5009868;28;20050;-39
2021/01/25 05:15:30;;;;;;;9.77;5.22;;;18.90;45.70;;;;;;5010597;28;20050;-40
2021/01/25 05:18:06;;;;;;;10.48;5.82;;;18.90;45.70;;;;;;5009722;28;20125;-40
2021/01/25 05:20:34;;;;;;;12.32;6.18;;;18.90;45.70;;;;;;5009566;28;20081;-41
2021/01/25 05:23:11;;;;;;;11.07;6.15;;;18.90;46.30;;;;;;5008823;28;20446;-39
2021/01/25 05:25:38;;;;;;;12.55;6.05;;;18.90;45.70;;;;;;5008121;28;20046;-39
2021/01/25 05:28:12;;;;;;;10.23;5.53;;;18.90;45.70;;;;;;5011177;28;20085;-40
2021/01/25 05:30:39;;;;;;;11.57;5.70;;;18.90;45.70;;;;;;5014098;28;20108;-39
2021/01/25 05:33:06;;;;;;;10.25;5.57;;;18.90;45.70;;;;;;5012937;28;20104;-40
2021/01/25 05:35:33;;;;;;;9.77;5.75;;;18.90;45.70;;;;;;5013356;28;20456;-39
2021/01/25 05:38:07;;;;;;;11.52;5.78;;;18.90;45.70;;;;;;5026507;28;20062;-39
2021/01/25 05:40:36;;;;;;;11.23;5.75;;;18.90;45.70;;;;;;5013242;28;20049;-39
2021/01/25 05:43:14;;;;;;;8.63;5.05;;;18.90;45.70;;;;;;5012727;28;20046;-39
2021/01/25 05:45:41;;;;;;;10.27;5.40;;;18.90;45.70;;;;;;5012654;28;20046;-39
2021/01/25 05:48:13;;;;;;;9.70;5.10;;;18.90;45.70;;;;;;5012890;28;20080;-40
2021/01/25 05:50:44;;;;;;;11.52;6.15;;;18.90;45.60;;;;;;5013799;28;20049;-40
2021/01/25 05:53:12;;;;;;;10.65;5.97;;;18.90;45.60;;;;;;5012711;28;20052;-39
2021/01/25 05:55:40;;;;;;;9.60;5.43;;;18.90;45.60;;;;;;5012641;28;20058;-39
2021/01/25 05:58:08;;;;;;;9.90;5.32;;;18.90;45.60;;;;;;5010467;28;20112;-40
2021/01/25 06:00:35;;;;;;;12.45;6.40;;;18.90;45.60;;;;;;5013779;28;20477;-40
2021/01/25 06:03:02;;;;;;;11.00;5.50;;;18.90;45.60;;;;;;5012867;28;20085;-41
2021/01/25 06:05:38;;;;;;;9.80;5.32;;;18.90;45.60;;;;;;5012469;28;20104;-41
2021/01/25 06:08:43;;;;;;;11.20;5.47;;;18.90;45.60;;;;;;5013090;28;20046;-40
2021/01/25 06:11:31;;;;;;;11.68;5.93;;;18.90;45.60;;;;;;5013854;28;20046;-41
2021/01/25 06:14:27;;;;;;;11.88;6.25;;;18.90;45.60;;;;;;5027518;28;20042;-41
2021/01/25 06:16:55;;;;;;;9.52;5.03;;;18.90;45.60;;;;;;5012620;28;20046;-42
2021/01/25 06:19:25;;;;;;;10.40;5.38;;;18.90;45.60;;;;;;5012888;28;20509;-40
2021/01/25 06:21:53;;;;;;;10.20;5.10;;;18.90;45.60;;;;;;5012532;28;20082;-42
2021/01/25 06:24:21;;;;;;;11.23;5.40;;;18.90;45.60;;;;;;5011934;28;20046;-41
2021/01/25 06:26:49;;;;;;;10.90;5.43;;;18.90;45.60;;;;;;5012920;28;20102;-39
2021/01/25 06:29:17;;;;;;;10.35;5.75;;;18.90;45.60;;;;;;5011900;28;20058;-39
2021/01/25 06:31:45;;;;;;;9.75;5.18;;;18.90;45.50;;;;;;5010441;28;20089;-41
2021/01/25 06:34:13;;;;;;;9.82;5.30;;;18.90;45.50;;;;;;5010436;28;20414;-40
2021/01/25 06:36:41;;;;;;;9.73;5.45;;;18.90;45.60;;;;;;5010514;28;20042;-39
2021/01/25 06:39:09;;;;;;;9.48;5.13;;;18.90;45.50;;;;;;5010629;28;20132;-42
2021/01/25 06:41:42;;;;;;;11.20;5.47;;;18.90;45.50;;;;;;5012672;28;20050;-39
2021/01/25 06:44:11;;;;;;;11.02;5.60;;;18.90;45.50;;;;;;5011778;28;20043;-39
2021/01/25 06:46:39;;;;;;;8.70;5.20;;;18.90;45.50;;;;;;4996050;28;20062;-39
2021/01/25 06:49:09;;;;;;;8.77;5.05;;;18.90;45.50;;;;;;5013314;28;20057;-41
2021/01/25 06:51:43;;;;;;;9.60;5.28;;;18.90;45.50;;;;;;5012060;28;20045;-40
2021/01/25 06:54:12;;;;;;;10.23;6.05;;;18.90;45.50;;;;;;5011923;28;20108;-40
2021/01/25 06:56:45;;;;;;;10.60;5.82;;;18.90;45.50;;;;;;5009832;28;20498;-40
2021/01/25 06:59:12;;;;;;;9.68;5.00;;;18.90;45.50;;;;;;5012731;28;20112;-40
2021/01/25 07:01:41;;;;;;;10.02;5.28;;;18.90;45.50;;;;;;5017284;28;20506;-42
2021/01/25 07:04:13;;;;;;;9.57;5.60;;;18.90;45.50;;;;;;5015903;28;20444;-39
2021/01/25 07:06:46;;;;;;;8.55;4.82;;;18.90;45.50;;;;;;5011227;28;20057;-39
2021/01/25 07:09:22;;;;;;;8.98;5.10;;;18.90;45.50;;;;;;5009731;28;20489;-41
2021/01/25 07:11:49;;;;;;;10.00;5.57;;;18.90;45.50;;;;;;5010935;28;20072;-39
2021/01/25 07:14:16;;;;;;;10.75;5.53;;;18.90;45.50;;;;;;5011137;28;20050;-39
2021/01/25 07:16:45;;;;;;;10.65;4.93;;;18.90;45.50;;;;;;5009554;28;20085;-40
2021/01/25 07:19:11;;;;;;;9.43;5.32;;;18.90;45.50;;;;;;5009881;28;20116;-40
2021/01/25 07:21:39;;;;;;;8.82;5.05;;;18.90;45.50;;;;;;5012066;28;20053;-40
2021/01/25 07:24:06;;;;;;;9.60;4.90;;;19.00;45.50;;;;;;5027260;28;20050;-40
2021/01/25 07:26:37;;;;;;;9.27;4.70;;;18.90;45.50;;;;;;5009908;28;20501;-40
2021/01/25 07:29:10;;;;;;;8.85;4.70;;;19.00;45.50;;;;;;5009714;28;20046;-40
2021/01/25 07:31:37;;;;;;;8.75;4.95;;;19.00;45.50;;;;;;5010235;28;20127;-43
2021/01/25 07:34:08;;;;;;;9.18;4.80;;;19.00;45.50;;;;;;5010794;28;20058;-38
2021/01/25 07:36:36;;;;;;;7.80;4.90;;;19.00;46.10;;;;;;5010928;28;20482;-40
2021/01/25 07:39:10;;;;;;;7.82;4.65;;;18.90;45.40;;;;;;5010609;28;20045;-38
2021/01/25 07:41:38;;;;;;;10.15;5.57;;;19.00;45.50;;;;;;5025826;28;20085;-40
2021/01/25 07:44:07;;;;;;;8.23;4.90;;;19.00;45.50;;;;;;5009077;28;20046;-40
2021/01/25 07:46:35;;;;;;;8.40;4.57;;;19.00;45.50;;;;;;5009419;28;20046;-38
2021/01/25 07:49:06;;;;;;;7.90;4.53;;;19.00;45.50;;;;;;5010526;28;20050;-38
2021/01/25 07:51:35;;;;;;;9.13;5.15;;;19.00;45.50;;;;;;5010090;28;20048;-38
2021/01/25 07:54:03;;;;;;;10.10;5.20;;;19.00;45.50;;;;;;5011443;28;20053;-39
2021/01/25 07:56:30;;;;;;;8.65;5.00;;;19.00;45.40;;;;;;5011932;28;20124;-39
2021/01/25 07:59:14;;;;;;;8.55;4.85;;;19.00;45.40;;;;;;5010498;28;20054;-39
2021/01/25 08:01:58;;;;;;;8.20;4.65;;;19.00;45.40;;;;;;5016223;28;20049;-39
2021/01/25 08:04:31;;;;;;;7.90;4.53;;;19.00;45.50;;;;;;5009963;28;20121;-38
2021/01/25 08:06:59;;;;;;;6.90;4.35;;;19.00;45.40;;;;;;5009316;28;20049;-39
2021/01/25 08:09:28;;;;;;;7.88;4.28;;;19.00;45.40;;;;;;5011216;28;20564;-39
2021/01/25 08:11:59;;;;;;;10.40;4.70;;;19.00;45.40;;;;;;5009023;28;20056;-40
2021/01/25 08:14:52;;;;;;;7.43;4.30;;;19.00;45.40;;;;;;5011193;28;20054;-39
2021/01/25 08:17:29;;;;;;;8.23;4.55;;;19.00;45.40;;;;;;5010539;28;20104;-39
2021/01/25 08:20:08;;;;;;;7.90;4.47;;;19.00;45.40;;;;;;5011223;28;20049;-39
2021/01/25 08:22:43;;;;;;;8.27;4.82;;;19.00;45.40;;;;;;5010134;28;20048;-39
2021/01/25 08:25:17;;;;;;;8.10;5.05;;;19.00;45.30;;;;;;5011218;28;20050;-39
2021/01/25 08:28:19;;;;;;;7.93;4.25;;;19.00;45.40;;;;;;5008218;28;20477;-39
2021/01/25 08:30:48;;;;;;;7.70;4.45;;;19.00;45.40;;;;;;5007737;28;20054;-40
2021/01/25 08:33:31;;;;;;;7.60;4.45;;;19.00;45.30;;;;;;5009851;28;20469;-43
2021/01/25 08:36:28;;;;;;;7.95;4.38;;;19.00;45.30;;;;;;5010281;28;20175;-39
2021/01/25 08:38:55;;;;;;;9.27;4.88;;;19.00;45.90;;;;;;5011042;28;20057;-39
2021/01/25 08:41:33;;;;;;;7.10;4.40;;;19.00;45.30;;;;;;5009704;28;20137;-41
2021/01/25 08:44:03;;;;;;;8.25;4.55;;;19.00;45.30;;;;;;5009901;28;20379;-40
2021/01/25 08:46:38;;;;;;;7.65;4.30;;;19.00;45.30;;;;;;5010083;28;20046;-43
2021/01/25 08:49:13;;;;;;;8.02;4.22;;;19.00;45.30;;;;;;5011108;28;20564;-41
2021/01/25 08:51:41;;;;;;;8.70;4.65;;;19.00;45.30;;;;;;5010009;28;20052;-40
2021/01/25 08:54:20;;;;;;;7.65;4.75;;;19.00;45.30;;;;;;5009805;28;20050;-42
2021/01/25 08:56:46;;;;;;;7.05;4.13;;;19.00;45.30;;;;;;5008355;28;20116;-40
2021/01/25 08:59:15;;;;;;;7.38;4.25;;;19.00;45.30;;;;;;5008462;28;20047;-42
2021/01/25 09:01:44;;;;;;;9.18;5.10;;;19.00;45.30;;;;;;5012995;28;20066;-39
2021/01/25 09:04:12;;;;;;;9.95;4.82;;;19.00;45.30;;;;;;5010786;28;20081;-39
2021/01/25 09:06:48;;;;;;;7.60;4.55;;;19.00;45.30;;;;;;5014383;28;20042;-41
2021/01/25 09:09:16;;;;;;;7.50;4.50;;;19.00;45.30;;;;;;5013425;28;20096;-41
2021/01/25 09:11:43;;;;;;;8.13;4.63;;;19.00;45.30;;;;;;5013150;28;20573;-39
2021/01/25 09:14:10;;;;;;;7.50;4.18;;;19.10;45.30;;;;;;5013570;28;20162;-40
2021/01/25 09:16:36;;;;;;;7.10;3.97;;;19.10;45.30;;;;;;5014161;28;20046;-38
2021/01/25 09:19:04;;;;;;;7.15;4.13;;;19.00;45.30;;;;;;5014351;28;20483;-41
2021/01/25 09:21:33;;;;;;;6.82;4.00;;;19.10;45.30;;;;;;5027994;28;20489;-41
2021/01/25 09:24:00;;;;;;;7.72;4.43;;;19.10;45.30;;;;;;5011227;28;20490;-40
2021/01/25 09:26:27;;;;;;;8.48;4.50;;;19.10;45.30;;;;;;5011109;28;20050;-39
2021/01/25 09:28:53;;;;;;;7.80;4.65;;;19.10;45.30;;;;;;5011171;28;20034;-39
2021/01/25 09:31:24;;;;;;;7.53;4.50;;;19.10;45.30;;;;;;5011086;28;20509;-39
2021/01/25 09:33:51;;;;;;;9.15;4.60;;;19.10;45.30;;;;;;5012984;28;20100;-38
2021/01/25 09:36:17;;;;;;;7.68;4.25;;;19.10;45.30;;;;;;5013347;28;20050;-39
2021/01/25 09:39:01;;;;;;;8.43;4.82;;;19.10;45.30;;;;;;5013232;28;20514;-39
2021/01/25 09:41:28;;;;;;;7.63;4.05;;;19.10;45.30;;;;;;5011560;28;20057;-41
2021/01/25 09:43:54;;;;;;;7.22;4.38;;;19.10;45.30;;;;;;5012325;28;20401;-39
2021/01/25 09:46:21;;;;;;;8.43;4.20;;;19.10;45.30;;;;;;5012407;28;20057;-39
2021/01/25 09:48:48;;;;;;;6.78;4.32;;;19.10;45.30;;;;;;5011104;28;20449;-39
2021/01/25 09:51:15;;;;;;;6.05;3.55;;;19.10;45.30;;;;;;5026335;28;20488;-39
2021/01/25 09:53:42;;;;;;;6.95;3.90;;;19.10;45.30;;;;;;5010973;28;20410;-42
2021/01/25 09:56:09;;;;;;;8.27;4.25;;;19.10;45.30;;;;;;5012286;28;20045;-40
2021/01/25 09:58:36;;;;;;;7.78;4.40;;;19.10;45.30;;;;;;5013502;28;20508;-39
2021/01/25 10:01:04;;;;;;;8.77;4.40;;;19.10;45.30;;;;;;5013940;28;20060;-40
2021/01/25 10:03:31;;;;;;;6.55;3.92;;;19.10;45.30;;;;;;5011169;28;20049;-41
2021/01/25 10:05:59;;;;;;;7.95;4.30;;;19.10;45.20;;;;;;5013536;28;20137;-39
2021/01/25 10:08:26;;;;;;;7.25;4.10;;;19.10;45.20;;;;;;5011787;28;20042;-41
2021/01/25 10:10:52;;;;;;;6.30;3.75;;;19.10;45.30;;;;;;5011653;28;20110;-39
2021/01/25 10:13:19;;;;;;;5.68;3.97;;;19.10;45.20;;;;;;5011762;28;20073;-38
2021/01/25 10:15:46;;;;;;;8.48;4.50;;;19.10;45.20;;;;;;5011477;28;20057;-39
2021/01/25 10:18:12;;;;;;;7.60;4.25;;;19.10;45.20;;;;;;5011715;28;20054;-39
2021/01/25 10:20:39;;;;;;;6.68;4.10;;;19.10;45.20;;;;;;5012768;28;20038;-39
2021/01/25 10:23:05;;;;;;;7.22;3.80;;;19.10;45.20;;;;;;5011873;28;20041;-38
2021/01/25 10:25:33;;;;;;;6.70;3.85;;;19.10;45.20;;;;;;5010401;28;20038;-40
2021/01/25 10:28:01;;;;;;;6.60;4.18;;;19.10;45.20;;;;;;5010661;28;20049;-40
2021/01/25 10:30:28;;;;;;;6.22;3.80;;;19.10;45.20;;;;;;5012336;28;20046;-39
2021/01/25 10:32:55;;;;;;;7.15;4.18;;;19.10;45.20;;;;;;5012072;28;20103;-38
2021/01/25 10:35:22;;;;;;;8.23;4.25;;;19.10;45.20;;;;;;5011367;28;20740;-39
2021/01/25 10:37:50;;;;;;;6.32;3.50;;;19.10;45.20;;;;;;5010106;28;20054;-38
2021/01/25 10:40:18;;;;;;;6.82;3.80;;;19.10;45.20;;;;;;5012737;28;20413;-39
2021/01/25 10:42:45;;;;;;;6.18;3.70;;;19.10;45.70;;;;;;5011184;28;20092;-40
2021/01/25 10:45:13;;;;;;;7.63;3.58;;;19.10;45.10;;;;;;5010908;28;20050;-38
2021/01/25 10:47:40;;;;;;;6.55;4.07;;;19.10;45.20;;;;;;5011932;28;20041;-41
2021/01/25 10:50:13;;;;;;;8.30;3.97;;;19.10;45.10;;;;;;5011008;28;20052;-39
2021/01/25 10:52:44;;;;;;;6.35;3.78;;;19.10;45.10;;;;;;5011210;28;20057;-39
2021/01/25 10:55:11;;;;;;;8.10;3.97;;;19.10;45.10;;;;;;5010066;28;20085;-41
2021/01/25 10:57:39;;;;;;;6.05;3.58;;;19.10;45.10;;;;;;5012054;28;20099;-39
2021/01/25 11:00:18;;;;;;;5.65;3.55;;;19.10;45.10;;;;;;5012105;28;20061;-39
2021/01/25 11:02:45;;;;;;;6.22;4.13;;;19.10;45.20;;;;;;5025089;28;20501;-40
2021/01/25 11:05:20;;;;;;;6.20;3.60;;;19.10;45.10;;;;;;5010864;28;20050;-39
2021/01/25 11:07:51;;;;;;;6.53;4.13;;;19.10;45.10;;;;;;5010853;28;20050;-39
2021/01/25 11:10:22;;;;;;;6.05;3.65;;;19.10;45.10;;;;;;5009376;28;20048;-39
2021/01/25 11:12:49;;;;;;;5.63;3.53;;;19.10;45.10;;;;;;5010790;28;20060;-40
2021/01/25 11:15:17;;;;;;;6.43;3.83;;;19.10;45.10;;;;;;5010527;28;20081;-39
2021/01/25 11:17:44;;;;;;;6.22;3.40;;;19.10;45.10;;;;;;5011289;28;20493;-40
2021/01/25 11:20:11;;;;;;;7.93;4.00;;;19.10;45.10;;;;;;5009148;28;20497;-39
2021/01/25 11:22:38;;;;;;;5.80;3.88;;;19.10;45.10;;;;;;5010868;28;20042;-40
2021/01/25 11:25:05;;;;;;;6.50;3.90;;;19.10;45.10;;;;;;5010276;28;20045;-40
2021/01/25 11:27:33;;;;;;;6.25;3.55;;;19.10;45.10;;;;;;5008360;28;20112;-39
2021/01/25 11:30:00;;;;;;;7.88;3.90;;;19.10;45.10;;;;;;5011965;28;20077;-39
2021/01/25 11:32:26;;;;;;;6.00;3.67;;;19.20;45.20;;;;;;5027064;28;20046;-40
2021/01/25 11:34:53;;;;;;;6.72;3.67;;;19.20;45.20;;;;;;5010194;28;20076;-40
2021/01/25 11:37:20;;;;;;;5.28;3.50;;;19.20;45.20;;;;;;5010356;28;20054;-39
2021/01/25 11:39:46;;;;;;;5.95;3.50;;;19.20;45.20;;;;;;5009899;28;20049;-39
2021/01/25 11:42:13;;;;;;;5.20;3.10;;;19.20;45.30;;;;;;5011404;28;20474;-40
2021/01/25 11:44:40;;;;;;;6.28;3.47;;;19.20;45.30;;;;;;5011136;28;20096;-39
2021/01/25 11:47:06;;;;;;;5.43;3.35;;;19.20;45.20;;;;;;5008815;28;20092;-39
2021/01/25 11:49:33;;;;;;;6.00;3.35;;;19.20;45.30;;;;;;5011335;28;20046;-39
2021/01/25 11:52:00;;;;;;;5.72;3.70;;;19.20;45.20;;;;;;5009766;28;20148;-40
2021/01/25 11:54:27;;;;;;;6.10;3.38;;;19.20;45.20;;;;;;5009106;28;20104;-40
2021/01/25 11:56:53;;;;;;;5.85;3.47;;;19.20;45.20;;;;;;5011288;28;20567;-40
2021/01/25 11:59:20;;;;;;;6.72;3.80;;;19.20;45.20;;;;;;5011347;28;20560;-41
2021/01/25 12:01:47;;;;;;;5.25;3.28;;;19.20;45.20;;;;;;5010731;28;20050;-39
2021/01/25 12:04:13;;;;;;;5.55;3.60;;;19.20;45.20;;;;;;5009914;28;20409;-40
2021/01/25 12:06:40;;;;;;;5.82;3.50;;;19.20;45.20;;;;;;5009798;28;20552;-41
2021/01/25 12:09:07;;;;;;;5.60;3.40;;;19.20;45.20;;;;;;5009729;28;20081;-40
2021/01/25 12:11:33;;;;;;;6.05;3.42;;;19.20;45.20;;;;;;5010060;28;20080;-40
2021/01/25 12:14:00;;;;;;;5.43;3.20;;;19.20;45.20;;;;;;5009618;28;20050;-42
2021/01/25 12:16:27;;;;;;;5.70;3.55;;;19.20;45.20;;;;;;5023406;28;20050;-40
2021/01/25 12:18:54;;;;;;;5.65;3.60;;;19.20;45.20;;;;;;5009721;28;20066;-40
2021/01/25 12:21:20;;;;;;;5.65;3.42;;;19.20;45.20;;;;;;5010815;28;20441;-40
2021/01/25 12:23:47;;;;;;;6.05;3.42;;;19.20;45.20;;;;;;5010746;28;20069;-42
2021/01/25 12:26:13;;;;;;;6.03;3.60;;;19.20;45.20;;;;;;5009889;28;20417;-40
2021/01/25 12:28:40;;;;;;;8.00;4.03;;;19.20;45.20;;;;;;5009478;28;20050;-39
2021/01/25 12:31:07;;;;;;;6.90;3.95;;;19.20;45.20;;;;;;5008552;28;20053;-40
2021/01/25 12:33:34;;;;;;;6.63;3.40;;;19.20;45.20;;;;;;5008621;28;20054;-45
2021/01/25 12:36:01;;;;;;;6.60;3.67;;;19.20;45.20;;;;;;5009469;28;20050;-42
2021/01/25 12:38:28;;;;;;;4.93;3.17;;;19.20;45.20;;;;;;5012487;28;20068;-42
2021/01/25 12:40:54;;;;;;;6.85;3.88;;;19.20;45.20;;;;;;5013643;28;21358;-44
2021/01/25 12:43:22;;;;;;;6.05;3.60;;;19.20;45.20;;;;;;5013712;28;20441;-45
2021/01/25 12:45:49;;;;;;;5.40;3.17;;;19.20;45.20;;;;;;5013761;28;20410;-46
2021/01/25 12:48:15;;;;;;;5.80;3.20;;;19.20;45.80;;;;;;5014964;28;20050;-42
2021/01/25 12:50:44;;;;;;;6.95;3.55;;;19.20;45.20;;;;;;5014271;28;20112;-42
2021/01/25 12:53:12;;;;;;;5.43;3.70;;;19.20;45.20;;;;;;5013478;28;20080;-43